Time;durP1;ratioP1;P1;durP2;ratioP2;P2;SDS_P1;SDS_P2;PMS_P1;PMS_P2;Temp;Humidity;BMP_temperature;BMP_pressure;BME280_temperature;BME280_humidity;BME280_pressure;Samples;Min_cycle;Max_cycle;Signal;HPM_P1;HPM_P2
2022/08/01 00:02:59;;;;;;;8.52;7.20;;;;;;;;;;10482725;28;20100;-73
2022/08/01 00:07:59;;;;;;;7.38;6.70;;;;;;;;;;10485463;28;20054;-74
2022/08/01 00:13:01;;;;;;;8.27;7.13;;;;;;;;;;10475139;28;20093;-73
2022/08/01 00:18:02;;;;;;;8.45;7.65;;;;;;;;;;10486524;28;20045;-74
2022/08/01 00:23:03;;;;;;;7.82;7.15;;;;;;;;;;10485538;28;20121;-73
2022/08/01 00:28:03;;;;;;;6.72;6.15;;;;;;;;;;10466406;28;20090;-74
2022/08/01 00:33:04;;;;;;;7.82;7.07;;;;;;;;;;10482714;28;20052;-74
2022/08/01 00:38:04;;;;;;;7.07;6.40;;;;;;;;;;10482123;28;20538;-74
2022/08/01 00:43:04;;;;;;;7.27;6.63;;;;;;;;;;10480024;28;20527;-73
2022/08/01 00:48:05;;;;;;;8.33;6.70;;;;;;;;;;10478329;28;20076;-74
2022/08/01 00:53:05;;;;;;;7.77;7.10;;;;;;;;;;10485670;28;20285;-73
2022/08/01 00:58:06;;;;;;;8.07;7.38;;;;;;;;;;10480349;28;20374;-73
2022/08/01 01:03:06;;;;;;;8.15;7.45;;;;;;;;;;10488271;28;20048;-74
2022/08/01 01:08:13;;;;;;;8.00;7.30;;;;;;;;;;10503768;28;20048;-73
2022/08/01 01:13:20;;;;;;;7.55;6.88;;;;;;;;;;10472589;28;20058;-72
2022/08/01 01:18:23;;;;;;;9.05;8.25;;;;;;;;;;10484480;28;20453;-73
2022/08/01 01:23:39;;;;;;;8.80;8.10;;;;;;;;;;10482580;28;20060;-75
2022/08/01 01:29:01;;;;;;;8.77;8.07;;;;;;;;;;10482868;28;20498;-73
2022/08/01 01:34:02;;;;;;;9.60;8.75;;;;;;;;;;10485358;28;20041;-74
2022/08/01 01:39:03;;;;;;;9.93;9.02;;;;;;;;;;10490833;28;20101;-73
2022/08/01 01:44:05;;;;;;;9.15;8.32;;;;;;;;;;10485287;28;20048;-73
2022/08/01 01:49:06;;;;;;;9.68;8.77;;;;;;;;;;10493368;28;20045;-73
2022/08/01 01:54:08;;;;;;;9.13;8.25;;;;;;;;;;10486870;28;20063;-74
2022/08/01 01:59:08;;;;;;;9.70;8.87;;;;;;;;;;10488984;28;20384;-74
2022/08/01 02:04:09;;;;;;;9.70;8.83;;;;;;;;;;10490529;28;20097;-74
2022/08/01 02:09:09;;;;;;;9.77;8.98;;;;;;;;;;10489820;28;20279;-75
2022/08/01 02:14:11;;;;;;;9.00;8.23;;;;;;;;;;10473958;28;20044;-73
2022/08/01 02:19:11;;;;;;;9.18;8.40;;;;;;;;;;10488838;28;20045;-73
2022/08/01 02:24:18;;;;;;;9.52;8.73;;;;;;;;;;10488158;28;20044;-74
2022/08/01 02:29:23;;;;;;;9.13;8.35;;;;;;;;;;10486791;28;20058;-74
2022/08/01 02:34:25;;;;;;;9.30;8.55;;;;;;;;;;10504500;28;20049;-73
2022/08/01 02:39:28;;;;;;;9.38;8.57;;;;;;;;;;10490314;28;20053;-73
2022/08/01 02:44:28;;;;;;;;;;;;;;;;;;10490577;28;20084;-73
2022/08/01 02:49:33;;;;;;;9.90;8.95;;;;;;;;;;10490852;28;20015;-73
2022/08/01 02:54:34;;;;;;;9.73;8.75;;;;;;;;;;10488392;28;20052;-74
2022/08/01 02:59:37;;;;;;;9.65;8.85;;;;;;;;;;10471714;28;20170;-73
2022/08/01 03:04:39;;;;;;;9.68;8.88;;;;;;;;;;10492945;28;20112;-73
2022/08/01 03:09:42;;;;;;;9.30;8.50;;;;;;;;;;10481890;28;20102;-72
2022/08/01 03:14:43;;;;;;;9.60;8.80;;;;;;;;;;10487183;28;20476;-74
2022/08/01 03:19:45;;;;;;;9.90;9.00;;;;;;;;;;10487280;28;20048;-74
2022/08/01 03:24:50;;;;;;;11.07;9.75;;;;;;;;;;10490698;28;20040;-73
2022/08/01 03:29:51;;;;;;;8.95;8.30;;;;;;;;;;10492317;28;20126;-75
2022/08/01 03:34:52;;;;;;;10.45;9.55;;;;;;;;;;10490354;28;20040;-73
2022/08/01 03:39:58;;;;;;;9.52;8.73;;;;;;;;;;10484361;28;20224;-74
2022/08/01 03:45:09;;;;;;;10.68;9.65;;;;;;;;;;10483705;28;20071;-72
2022/08/01 03:50:10;;;;;;;10.48;9.48;;;;;;;;;;10483431;28;20054;-72
2022/08/01 03:55:11;;;;;;;10.23;9.32;;;;;;;;;;10488223;28;20044;-73
2022/08/01 04:00:12;;;;;;;10.35;9.35;;;;;;;;;;10487907;28;20045;-74
2022/08/01 04:05:16;;;;;;;10.80;9.80;;;;;;;;;;10485230;28;20044;-72
2022/08/01 04:10:16;;;;;;;9.75;8.95;;;;;;;;;;10486638;28;20048;-74
2022/08/01 04:15:17;;;;;;;10.25;9.35;;;;;;;;;;10485464;28;20082;-75
2022/08/01 04:20:17;;;;;;;10.32;9.43;;;;;;;;;;10489969;28;20056;-74
2022/08/01 04:25:24;;;;;;;8.45;7.75;;;;;;;;;;10488837;28;20120;-73
2022/08/01 04:30:26;;;;;;;9.10;8.30;;;;;;;;;;10485083;28;20044;-74
2022/08/01 04:35:28;;;;;;;8.35;7.53;;;;;;;;;;10503150;28;20036;-74
2022/08/01 04:40:29;;;;;;;8.43;7.72;;;;;;;;;;10488295;28;20059;-74
2022/08/01 04:45:29;;;;;;;7.53;6.82;;;;;;;;;;10485176;28;20113;-73
2022/08/01 04:50:31;;;;;;;7.88;7.18;;;;;;;;;;10484150;28;20093;-70
2022/08/01 04:55:32;;;;;;;7.67;6.87;;;;;;;;;;10469622;28;20037;-70
2022/08/01 05:00:33;;;;;;;6.70;6.10;;;;;;;;;;10481251;28;20063;-71
2022/08/01 05:05:34;;;;;;;6.60;5.93;;;;;;;;;;10481221;28;20066;-73
2022/08/01 05:10:35;;;;;;;8.13;7.00;;;;;;;;;;10494098;28;20048;-71
2022/08/01 05:15:38;;;;;;;6.25;5.05;;;;;;;;;;10482563;28;20047;-70
2022/08/01 05:20:40;;;;;;;4.45;3.80;;;;;;;;;;10483361;28;20049;-72
2022/08/01 05:25:40;;;;;;;11.18;9.45;;;;;;;;;;10482774;28;20044;-71
2022/08/01 05:30:41;;;;;;;4.30;3.90;;;;;;;;;;10483421;28;20048;-71
2022/08/01 05:35:41;;;;;;;6.35;4.65;;;;;;;;;;10480193;28;20044;-72
2022/08/01 05:40:41;;;;;;;7.87;6.87;;;;;;;;;;10483432;28;20494;-72
2022/08/01 05:45:42;;;;;;;5.75;4.22;;;;;;;;;;10485335;28;20275;-71
2022/08/01 05:50:43;;;;;;;5.38;4.38;;;;;;;;;;10485196;28;20487;-71
2022/08/01 05:55:43;;;;;;;4.75;4.35;;;;;;;;;;10488783;28;20142;-72
2022/08/01 06:00:44;;;;;;;5.35;3.55;;;;;;;;;;10478901;28;20102;-71
2022/08/01 06:05:44;;;;;;;4.27;3.70;;;;;;;;;;10490215;28;20048;-71
2022/08/01 06:10:44;;;;;;;4.50;3.70;;;;;;;;;;10494707;28;20287;-70
2022/08/01 06:15:45;;;;;;;4.32;3.25;;;;;;;;;;10485493;28;20357;-71
2022/08/01 06:20:46;;;;;;;5.68;3.30;;;;;;;;;;10481152;28;20044;-71
2022/08/01 06:25:47;;;;;;;8.45;7.28;;;;;;;;;;10476532;28;20048;-72
2022/08/01 06:30:47;;;;;;;3.88;3.15;;;;;;;;;;10483850;28;20125;-71
2022/08/01 06:35:48;;;;;;;5.22;3.25;;;;;;;;;;10502266;28;20118;-71
2022/08/01 06:40:48;;;;;;;3.17;2.87;;;;;;;;;;10503609;28;20101;-72
2022/08/01 06:45:49;;;;;;;3.63;3.15;;;;;;;;;;10502485;28;20040;-72
2022/08/01 06:51:07;;;;;;;3.42;3.13;;;;;;;;;;10493302;28;20048;-71
2022/08/01 06:56:08;;;;;;;4.07;3.17;;;;;;;;;;10483224;28;20036;-72
2022/08/01 07:01:08;;;;;;;3.30;2.65;;;;;;;;;;10482507;28;20040;-74
2022/08/01 07:06:09;;;;;;;3.80;2.87;;;;;;;;;;10476665;28;20036;-73
2022/08/01 07:11:09;;;;;;;4.95;3.08;;;;;;;;;;10468362;28;20094;-73
2022/08/01 07:16:10;;;;;;;4.03;3.40;;;;;;;;;;10482478;28;20070;-73
2022/08/01 07:21:10;;;;;;;6.07;3.50;;;;;;;;;;10483239;28;20439;-72
2022/08/01 07:26:11;;;;;;;3.55;2.97;;;;;;;;;;10483073;28;20388;-72
2022/08/01 07:31:11;;;;;;;3.60;3.30;;;;;;;;;;10485948;28;20066;-72
2022/08/01 07:36:11;;;;;;;3.83;3.20;;;;;;;;;;10486843;28;20286;-71
2022/08/01 07:41:13;;;;;;;3.30;3.00;;;;;;;;;;10491929;28;20927;-71
2022/08/01 07:46:14;;;;;;;4.43;3.40;;;;;;;;;;10478499;28;20151;-72
2022/08/01 07:51:15;;;;;;;5.10;3.73;;;;;;;;;;10481843;28;20060;-74
2022/08/01 07:56:15;;;;;;;5.03;3.00;;;;;;;;;;10481615;28;20484;-71
2022/08/01 08:01:16;;;;;;;4.67;3.63;;;;;;;;;;10488173;28;20048;-71
2022/08/01 08:06:16;;;;;;;4.07;3.65;;;;;;;;;;10479633;28;20055;-71
2022/08/01 08:11:16;;;;;;;4.30;3.37;;;;;;;;;;10479474;28;20071;-72
2022/08/01 08:16:17;;;;;;;3.50;3.20;;;;;;;;;;10479327;28;20682;-71
2022/08/01 08:21:17;;;;;;;5.70;3.90;;;;;;;;;;10479468;28;20313;-72
2022/08/01 08:26:18;;;;;;;4.30;3.10;;;;;;;;;;10484552;28;20079;-71
2022/08/01 08:31:18;;;;;;;5.13;3.40;;;;;;;;;;10480043;28;20911;-73
2022/08/01 08:36:18;;;;;;;4.10;3.37;;;;;;;;;;10476215;28;20826;-72
2022/08/01 08:41:19;;;;;;;3.60;2.33;;;;;;;;;;10487185;28;20283;-71
2022/08/01 08:46:20;;;;;;;3.63;2.00;;;;;;;;;;10467480;28;20147;-72
2022/08/01 08:51:20;;;;;;;3.13;2.20;;;;;;;;;;10482231;28;20036;-72
2022/08/01 08:56:23;;;;;;;2.78;2.05;;;;;;;;;;10481645;28;20487;-72
2022/08/01 09:01:23;;;;;;;;;;;;;;;;;;10482685;28;20158;-71
2022/08/01 09:06:23;;;;;;;2.97;2.00;;;;;;;;;;10481805;28;19916;-73
2022/08/01 09:11:24;;;;;;;4.45;2.00;;;;;;;;;;10485543;28;20045;-72
2022/08/01 09:16:25;;;;;;;7.72;4.32;;;;;;;;;;10488816;28;20168;-71
2022/08/01 09:21:25;;;;;;;2.95;1.70;;;;;;;;;;10470026;28;20056;-72
2022/08/01 09:26:33;;;;;;;3.45;1.73;;;;;;;;;;10477014;28;20045;-72
2022/08/01 09:31:41;;;;;;;3.97;1.90;;;;;;;;;;10466352;28;21237;-74
2022/08/01 09:36:58;;;;;;;3.13;2.22;;;;;;;;;;10476744;28;20037;-71
2022/08/01 09:41:59;;;;;;;2.00;1.70;;;;;;;;;;10476320;28;20053;-73
2022/08/01 09:46:59;;;;;;;2.43;1.83;;;;;;;;;;10475524;28;20082;-72
2022/08/01 09:52:09;;;;;;;2.73;1.80;;;;;;;;;;10477657;28;20557;-72
2022/08/01 09:57:19;;;;;;;2.03;1.83;;;;;;;;;;10475800;28;20116;-73
2022/08/01 10:02:27;;;;;;;3.05;2.22;;;;;;;;;;10474283;28;20120;-72
2022/08/01 10:07:27;;;;;;;2.45;1.90;;;;;;;;;;10484762;28;20132;-74
2022/08/01 10:12:28;;;;;;;2.25;1.80;;;;;;;;;;10487958;28;20051;-73
2022/08/01 10:17:28;;;;;;;1.80;1.70;;;;;;;;;;10485858;28;20177;-75
2022/08/01 10:22:30;;;;;;;2.45;1.90;;;;;;;;;;10485445;28;20279;-72
2022/08/01 10:27:33;;;;;;;2.45;1.90;;;;;;;;;;10483882;28;20642;-74
2022/08/01 10:32:34;;;;;;;2.13;1.75;;;;;;;;;;10486213;28;20044;-74
2022/08/01 10:37:35;;;;;;;1.98;1.60;;;;;;;;;;10483509;28;20045;-71
2022/08/01 10:42:35;;;;;;;2.03;1.77;;;;;;;;;;10484424;28;20055;-73
2022/08/01 10:47:45;;;;;;;5.45;4.95;;;;;;;;;;10474375;28;20036;-73
2022/08/01 10:53:04;;;;;;;2.20;1.63;;;;;;;;;;10490917;28;20447;-71
2022/08/01 10:58:07;;;;;;;1.75;1.60;;;;;;;;;;10488975;28;20391;-73
2022/08/01 11:03:08;;;;;;;2.85;2.00;;;;;;;;;;10490223;28;20051;-72
2022/08/01 11:08:21;;;;;;;2.40;2.22;;;;;;;;;;10491521;28;20067;-72
2022/08/01 11:13:41;;;;;;;2.50;1.88;;;;;;;;;;10490484;28;20147;-72
2022/08/01 11:18:49;;;;;;;2.33;2.10;;;;;;;;;;10491514;28;20588;-73
2022/08/01 11:23:53;;;;;;;2.30;2.10;;;;;;;;;;10489194;28;20056;-75
2022/08/01 11:29:19;;;;;;;2.08;1.92;;;;;;;;;;10477055;28;20044;-72
2022/08/01 11:34:40;;;;;;;1.95;1.85;;;;;;;;;;10484194;28;20044;-71
2022/08/01 11:39:41;;;;;;;2.15;1.95;;;;;;;;;;10497696;28;20097;-72
2022/08/01 11:44:48;;;;;;;2.20;1.80;;;;;;;;;;10498456;28;20355;-71
2022/08/01 11:49:54;;;;;;;1.98;1.75;;;;;;;;;;10492187;28;20091;-74
2022/08/01 11:54:54;;;;;;;1.73;1.40;;;;;;;;;;10490488;28;20201;-72
2022/08/01 11:59:55;;;;;;;2.73;2.53;;;;;;;;;;10489792;28;20399;-71
2022/08/01 12:05:20;;;;;;;3.57;2.40;;;;;;;;;;10488192;28;20040;-71
2022/08/01 12:10:21;;;;;;;3.42;2.80;;;;;;;;;;10488116;28;20097;-72
2022/08/01 12:15:23;;;;;;;3.67;2.53;;;;;;;;;;10489809;28;20105;-71
2022/08/01 12:20:25;;;;;;;3.00;2.70;;;;;;;;;;10488358;28;20057;-72
2022/08/01 12:25:26;;;;;;;3.03;2.55;;;;;;;;;;10488336;28;20052;-73
2022/08/01 12:30:26;;;;;;;4.27;2.30;;;;;;;;;;10473567;28;20123;-73
2022/08/01 12:35:28;;;;;;;2.70;2.50;;;;;;;;;;10461556;28;20766;-74
2022/08/01 12:40:28;;;;;;;;;;;;;;;;;;10486357;28;20230;-74
2022/08/01 12:45:33;;;;;;;2.53;2.33;;;;;;;;;;10488492;28;20190;-73
2022/08/01 12:50:36;;;;;;;2.88;2.58;;;;;;;;;;10474162;28;20048;-72
2022/08/01 12:55:43;;;;;;;2.33;2.05;;;;;;;;;;10484956;28;20391;-73
2022/08/01 13:00:45;;;;;;;1.90;1.80;;;;;;;;;;10479565;28;20048;-73
2022/08/01 13:05:54;;;;;;;5.28;2.35;;;;;;;;;;10501708;28;20045;-73
2022/08/01 13:11:01;;;;;;;2.47;2.28;;;;;;;;;;10483903;28;20048;-74
2022/08/01 13:16:05;;;;;;;4.60;3.47;;;;;;;;;;10483164;28;20037;-75
2022/08/01 13:21:15;;;;;;;2.42;2.22;;;;;;;;;;10482322;28;20067;-74
2022/08/01 13:26:16;;;;;;;2.80;2.40;;;;;;;;;;10482953;28;20053;-73
2022/08/01 13:31:16;;;;;;;2.93;2.03;;;;;;;;;;10501001;28;20075;-73
2022/08/01 13:36:17;;;;;;;2.20;1.90;;;;;;;;;;10483423;28;20040;-74
2022/08/01 13:41:17;;;;;;;3.80;1.60;;;;;;;;;;10498090;28;20107;-76
2022/08/01 13:46:19;;;;;;;2.30;1.80;;;;;;;;;;10485649;28;20068;-82
2022/08/01 13:51:20;;;;;;;1.77;1.67;;;;;;;;;;10509729;28;20119;-82
2022/08/01 13:56:24;;;;;;;2.33;1.77;;;;;;;;;;10519270;28;20411;-80
2022/08/01 14:01:27;;;;;;;1.60;1.50;;;;;;;;;;10528652;28;20044;-81
2022/08/01 14:06:31;;;;;;;1.55;1.45;;;;;;;;;;10511855;28;20068;-84
2022/08/01 14:11:33;;;;;;;1.70;1.40;;;;;;;;;;10507129;28;20124;-84
2022/08/01 14:16:37;;;;;;;2.05;1.75;;;;;;;;;;10519116;28;20032;-80
2022/08/01 14:21:40;;;;;;;2.17;1.27;;;;;;;;;;10530033;28;20064;-83
2022/08/01 14:26:43;;;;;;;8.70;6.97;;;;;;;;;;10526375;28;20045;-82
2022/08/01 14:31:56;;;;;;;1.48;1.38;;;;;;;;;;10524821;28;20041;-80
2022/08/01 14:36:58;;;;;;;1.20;1.10;;;;;;;;;;10513762;28;20037;-84
2022/08/01 14:41:59;;;;;;;1.60;1.50;;;;;;;;;;10521846;28;20068;-82
2022/08/01 14:47:00;;;;;;;1.55;1.40;;;;;;;;;;10502134;28;20286;-84
2022/08/01 14:52:01;;;;;;;2.00;1.80;;;;;;;;;;10518691;28;20032;-82
2022/08/01 14:57:01;;;;;;;3.23;2.40;;;;;;;;;;10512195;28;20044;-81
2022/08/01 15:02:02;;;;;;;2.27;2.07;;;;;;;;;;10509423;28;20048;-82
2022/08/01 15:07:04;;;;;;;2.50;2.30;;;;;;;;;;10527168;28;20040;-83
2022/08/01 15:12:05;;;;;;;2.58;2.30;;;;;;;;;;10500896;28;20045;-78
2022/08/01 15:17:07;;;;;;;2.20;2.00;;;;;;;;;;10526909;28;20463;-80
2022/08/01 15:22:08;;;;;;;2.30;2.08;;;;;;;;;;10513411;28;20056;-80
2022/08/01 15:27:09;;;;;;;2.63;2.43;;;;;;;;;;10478702;28;20060;-83
2022/08/01 15:32:12;;;;;;;2.20;2.00;;;;;;;;;;10494958;28;20067;-77
2022/08/01 15:37:14;;;;;;;1.97;1.87;;;;;;;;;;10487844;28;20072;-81
2022/08/01 15:42:16;;;;;;;2.10;2.00;;;;;;;;;;10497692;28;20079;-80
2022/08/01 15:47:17;;;;;;;2.42;2.22;;;;;;;;;;10520568;28;20041;-80
2022/08/01 15:52:18;;;;;;;2.30;2.00;;;;;;;;;;10518246;28;20048;-80
2022/08/01 15:57:19;;;;;;;2.10;1.80;;;;;;;;;;10497642;28;20131;-81
2022/08/01 16:02:20;;;;;;;;;;;;;;;;;;10498674;28;20060;-81
2022/08/01 16:07:23;;;;;;;2.88;1.88;;;;;;;;;;10495231;28;19920;-84
2022/08/01 16:12:27;;;;;;;4.63;3.03;;;;;;;;;;10674545;22;20128;-79
2022/08/01 16:17:30;;;;;;;3.37;2.57;;;;;;;;;;10367164;28;20125;-85
2022/08/01 16:22:31;;;;;;;4.05;2.95;;;;;;;;;;10395861;28;20033;-81
2022/08/01 16:27:32;;;;;;;2.83;2.03;;;;;;;;;;10464024;28;20048;-79
2022/08/01 16:32:37;;;;;;;2.40;2.20;;;;;;;;;;10515160;28;20036;-80
2022/08/01 16:37:39;;;;;;;2.20;2.00;;;;;;;;;;10528674;28;20050;-79
2022/08/01 16:42:40;;;;;;;;;;;;;;;;;;10548044;28;20574;-78
2022/08/01 16:47:47;;;;;;;2.30;2.10;;;;;;;;;;10537150;28;19912;-80
2022/08/01 16:52:50;;;;;;;2.10;1.90;;;;;;;;;;10524363;28;20044;-79
2022/08/01 16:57:50;;;;;;;2.08;1.95;;;;;;;;;;10524764;28;20803;-77
2022/08/01 17:02:58;;;;;;;3.20;2.00;;;;;;;;;;10533309;28;20055;-83
2022/08/01 17:08:00;;;;;;;2.25;2.08;;;;;;;;;;10552993;28;20055;-81
2022/08/01 17:18:49;;;;;;;2.25;2.05;;;;;;;;;;10238093;28;20035;-83
2022/08/01 17:24:11;;;;;;;2.42;2.22;;;;;;;;;;10253769;28;20087;-85
2022/08/01 17:29:43;;;;;;;;;;;;;;;;;;;;;
2022/08/01 17:35:28;;;;;;;2.30;2.10;;;;;;;;;;10502712;28;21640;-82
2022/08/01 17:40:32;;;;;;;2.93;2.10;;;;;;;;;;10506993;28;20035;-85
2022/08/01 17:45:32;;;;;;;2.33;2.13;;;;;;;;;;10524647;28;20024;-84
2022/08/01 17:50:34;;;;;;;4.70;2.80;;;;;;;;;;10526846;28;20031;-81
2022/08/01 17:55:40;;;;;;;2.70;2.50;;;;;;;;;;10506757;28;20036;-82
2022/08/01 18:00:43;;;;;;;2.63;2.42;;;;;;;;;;10505948;28;20067;-83
2022/08/01 18:06:16;;;;;;;2.28;2.08;;;;;;;;;;10518793;28;20138;-80
2022/08/01 18:11:31;;;;;;;2.88;2.67;;;;;;;;;;10540579;28;20081;-80
2022/08/01 18:16:31;;;;;;;7.15;6.47;;;;;;;;;;10500468;28;20074;-80
2022/08/01 18:21:36;;;;;;;3.17;2.30;;;;;;;;;;10508158;28;20123;-79
2022/08/01 18:26:53;;;;;;;3.72;2.53;;;;;;;;;;10494939;28;20055;-79
2022/08/01 18:31:58;;;;;;;2.93;2.53;;;;;;;;;;10509644;28;20086;-76
2022/08/01 18:36:58;;;;;;;2.60;2.40;;;;;;;;;;10494051;28;21826;-75
2022/08/01 18:41:59;;;;;;;2.45;2.25;;;;;;;;;;10502015;28;20052;-76
2022/08/01 18:47:00;;;;;;;3.10;2.67;;;;;;;;;;10494296;28;20676;-76
2022/08/01 18:52:00;;;;;;;2.60;2.40;;;;;;;;;;10503621;28;20032;-73
2022/08/01 18:57:00;;;;;;;3.73;3.20;;;;;;;;;;10504211;28;20052;-74
2022/08/01 19:02:01;;;;;;;2.63;2.43;;;;;;;;;;10505303;28;20282;-74
2022/08/01 19:07:04;;;;;;;4.47;4.07;;;;;;;;;;10504769;28;20204;-75
2022/08/01 19:12:04;;;;;;;3.05;2.85;;;;;;;;;;10493237;28;20637;-75
2022/08/01 19:17:05;;;;;;;2.85;2.65;;;;;;;;;;10496898;28;20145;-75
2022/08/01 19:22:05;;;;;;;5.93;4.47;;;;;;;;;;10483856;28;20118;-75
2022/08/01 19:27:07;;;;;;;3.70;3.40;;;;;;;;;;10513578;28;20048;-76
2022/08/01 19:32:09;;;;;;;4.05;3.35;;;;;;;;;;10492604;28;20028;-76
2022/08/01 19:37:12;;;;;;;3.13;2.83;;;;;;;;;;10504700;28;20044;-75
2022/08/01 19:42:12;;;;;;;3.45;3.00;;;;;;;;;;10509997;28;20056;-76
2022/08/01 19:47:14;;;;;;;4.20;3.80;;;;;;;;;;10498970;28;20040;-73
2022/08/01 19:52:16;;;;;;;4.33;3.80;;;;;;;;;;10502251;28;20282;-74
2022/08/01 19:57:16;;;;;;;5.32;3.90;;;;;;;;;;10502713;28;20365;-74
2022/08/01 20:02:18;;;;;;;7.40;5.47;;;;;;;;;;10501897;28;20211;-73
2022/08/01 20:07:19;;;;;;;8.90;4.90;;;;;;;;;;10493388;28;20275;-73
2022/08/01 20:12:20;;;;;;;4.33;3.60;;;;;;;;;;10507933;28;20083;-75
2022/08/01 20:17:21;;;;;;;5.78;4.10;;;;;;;;;;10494158;28;20053;-76
2022/08/01 20:22:28;;;;;;;4.43;4.03;;;;;;;;;;10492431;28;20052;-76
2022/08/01 20:27:29;;;;;;;4.45;4.05;;;;;;;;;;10511001;28;20367;-75
2022/08/01 20:32:32;;;;;;;6.33;4.73;;;;;;;;;;10510658;28;20044;-75
2022/08/01 20:37:35;;;;;;;5.28;4.75;;;;;;;;;;10501445;28;20044;-75
2022/08/01 20:42:36;;;;;;;5.03;4.43;;;;;;;;;;10492266;28;20135;-74
2022/08/01 20:47:38;;;;;;;5.20;4.70;;;;;;;;;;10501339;28;20061;-75
2022/08/01 20:52:43;;;;;;;6.38;5.68;;;;;;;;;;10490580;28;20138;-74
2022/08/01 20:57:47;;;;;;;5.38;4.88;;;;;;;;;;10492842;28;20040;-74
2022/08/01 21:02:50;;;;;;;5.85;5.22;;;;;;;;;;10495375;28;20056;-76
2022/08/01 21:07:51;;;;;;;5.90;5.15;;;;;;;;;;10502810;28;20060;-76
2022/08/01 21:13:04;;;;;;;4.55;4.15;;;;;;;;;;10509870;28;20064;-75
2022/08/01 21:18:40;;;;;;;5.20;4.70;;;;;;;;;;10493270;28;20567;-76
2022/08/01 21:23:51;;;;;;;6.97;6.18;;;;;;;;;;10422455;28;20045;-77
2022/08/01 21:28:54;;;;;;;7.35;6.00;;;;;;;;;;10474570;28;20058;-75
2022/08/01 21:33:57;;;;;;;6.00;5.07;;;;;;;;;;10494646;28;20491;-77
2022/08/01 21:38:57;;;;;;;;;;;;;;;;;;10488846;28;20040;-75
2022/08/01 21:44:01;;;;;;;4.85;4.43;;;;;;;;;;10515960;28;19927;-75
2022/08/01 21:49:03;;;;;;;5.75;5.03;;;;;;;;;;10508391;28;20044;-74
2022/08/01 21:54:18;;;;;;;5.07;4.57;;;;;;;;;;10517041;28;20112;-74
2022/08/01 21:59:37;;;;;;;5.75;4.80;;;;;;;;;;10513514;28;20066;-77
2022/08/01 22:04:47;;;;;;;5.38;4.78;;;;;;;;;;10492164;28;20071;-75
2022/08/01 22:09:48;;;;;;;5.10;4.60;;;;;;;;;;10508353;28;20048;-76
2022/08/01 22:14:51;;;;;;;5.45;4.93;;;;;;;;;;10507965;28;20037;-75
2022/08/01 22:19:53;;;;;;;5.65;5.03;;;;;;;;;;10502706;28;20067;-75
2022/08/01 22:24:54;;;;;;;6.05;4.78;;;;;;;;;;10504209;28;20131;-75
2022/08/01 22:29:56;;;;;;;6.55;5.70;;;;;;;;;;10506961;28;20048;-75
2022/08/01 22:35:02;;;;;;;5.78;5.10;;;;;;;;;;10513658;28;20380;-76
2022/08/01 22:40:04;;;;;;;6.63;5.38;;;;;;;;;;10502764;28;20067;-75
2022/08/01 22:45:11;;;;;;;5.40;4.90;;;;;;;;;;10514946;28;20463;-76
2022/08/01 22:50:16;;;;;;;6.25;5.20;;;;;;;;;;10524555;28;20059;-77
2022/08/01 22:55:19;;;;;;;5.70;5.07;;;;;;;;;;10507793;28;20114;-76
2022/08/01 23:00:19;;;;;;;4.85;4.45;;;;;;;;;;10505967;28;20151;-76
2022/08/01 23:05:20;;;;;;;4.90;4.50;;;;;;;;;;10501539;28;20133;-79
2022/08/01 23:10:23;;;;;;;5.63;5.13;;;;;;;;;;10513999;28;20377;-76
2022/08/01 23:15:23;;;;;;;5.37;4.87;;;;;;;;;;10504114;28;20046;-75
2022/08/01 23:20:25;;;;;;;5.70;5.20;;;;;;;;;;10508613;28;20392;-75
2022/08/01 23:25:26;;;;;;;5.28;4.78;;;;;;;;;;10484341;28;20506;-74
2022/08/01 23:30:27;;;;;;;5.82;5.22;;;;;;;;;;10501135;28;20117;-76
2022/08/01 23:35:28;;;;;;;5.07;4.57;;;;;;;;;;10503175;28;20040;-74
2022/08/01 23:40:31;;;;;;;5.82;4.75;;;;;;;;;;10495465;28;20352;-76
2022/08/01 23:45:32;;;;;;;5.50;4.80;;;;;;;;;;10504947;28;20040;-76
2022/08/01 23:50:32;;;;;;;6.65;5.55;;;;;;;;;;10518387;28;20041;-74
2022/08/01 23:55:33;;;;;;;5.70;5.10;;;;;;;;;;10522009;28;20081;-76
